Time;durP1;ratioP1;P1;durP2;ratioP2;P2;SDS_P1;SDS_P2;PMS_P1;PMS_P2;Temp;Humidity;BMP_temperature;BMP_pressure;BME280_temperature;BME280_humidity;BME280_pressure;Samples;Min_cycle;Max_cycle;Signal;HPM_P1;HPM_P2
2021/12/14 00:00:03;;;;;;;17.92;6.86;;;-0.20;99.90;;;-0.60;96.28;98693.16;172377;28;1475;-77
2021/12/14 00:00:30;;;;;;;18.41;6.82;;;-0.20;99.90;;;-0.65;96.37;98687.28;171762;28;1370;-77
2021/12/14 00:00:51;;;;;;;17.46;6.81;;;-0.20;99.90;;;-0.55;96.16;98703.47;173128;28;1373;-77
2021/12/14 00:01:43;;;;;;;15.79;6.70;;;-0.20;99.90;;;-0.90;96.76;98642.03;171175;28;2857;-78
2021/12/14 00:01:55;;;;;;;16.71;6.75;;;-0.20;99.90;;;-0.64;96.76;98696.94;171067;28;1368;-77
2021/12/14 00:02:01;;;;;;;18.61;7.19;;;-0.20;99.90;;;-0.58;97.04;98703.66;173249;28;1247;-77
2021/12/14 00:02:08;;;;;;;18.57;7.13;;;-0.20;99.90;;;-0.62;97.08;98705.59;172536;28;899;-76
2021/12/14 00:02:16;;;;;;;18.52;6.90;;;-0.20;99.90;;;-0.70;96.89;98688.47;171840;28;895;-77
2021/12/14 00:02:28;;;;;;;17.83;6.77;;;-0.20;99.90;;;-0.65;96.77;98697.84;171846;28;1358;-77
2021/12/14 00:02:34;;;;;;;18.57;6.93;;;-0.20;99.90;;;-0.74;96.74;98679.88;171798;28;1406;-77
2021/12/14 00:02:42;;;;;;;18.70;7.02;;;-0.30;99.90;;;-0.82;96.65;98668.88;172325;28;1411;-78
2021/12/14 00:02:49;;;;;;;17.80;7.10;;;-0.30;99.90;;;-0.67;96.79;98693.59;171771;28;1310;-77
2021/12/14 00:02:57;;;;;;;17.72;7.28;;;-0.30;99.90;;;-0.70;96.90;98693.78;170516;29;1040;-77
2021/12/14 00:03:06;;;;;;;15.28;6.90;;;-0.30;99.90;;;-0.63;97.04;98705.72;171887;28;1042;-77
2021/12/14 00:03:16;;;;;;;15.47;6.57;;;-0.30;99.90;;;-0.67;97.44;98696.22;171941;28;849;-77
2021/12/14 00:03:28;;;;;;;13.88;6.05;;;-0.30;99.90;;;-0.75;96.98;98682.59;171817;28;1346;-77
2021/12/14 00:03:40;;;;;;;14.84;6.21;;;-0.30;99.90;;;-0.61;96.94;98703.81;171147;28;1553;-77
2021/12/14 00:03:53;;;;;;;16.14;6.90;;;-0.30;99.90;;;-0.81;97.53;98669.72;172530;28;1413;-77
2021/12/14 00:04:18;;;;;;;17.05;6.80;;;-0.30;99.90;;;-0.66;97.07;98695.28;172473;28;1452;-77
2021/12/14 00:04:35;;;;;;;15.94;6.43;;;-0.30;99.90;;;-0.71;97.26;98686.78;171692;28;2760;-77
2021/12/14 00:04:43;;;;;;;15.93;6.71;;;-0.30;99.90;;;-0.77;97.20;98679.19;172264;28;1518;-78
2021/12/14 00:04:49;;;;;;;15.93;6.87;;;-0.30;99.90;;;-0.66;97.30;98696.16;173187;28;883;-77
2021/12/14 00:05:00;;;;;;;16.38;6.47;;;-0.30;99.90;;;-0.80;97.66;98664.38;172943;28;1470;-77
2021/12/14 00:05:07;;;;;;;17.29;6.57;;;-0.30;99.90;;;-0.61;97.77;98695.88;170438;28;1489;-77
2021/12/14 00:05:18;;;;;;;15.40;6.50;;;-0.30;99.90;;;-0.70;97.39;98683.19;170399;29;1548;-77
2021/12/14 00:05:29;;;;;;;15.21;6.50;;;-0.30;99.90;;;-0.65;97.49;98692.56;171093;28;1282;-77
2021/12/14 00:05:38;;;;;;;17.61;6.70;;;-0.30;99.90;;;-0.62;97.35;98705.59;169951;29;1258;-77
2021/12/14 00:05:45;;;;;;;19.09;6.84;;;-0.30;99.90;;;-0.62;97.52;98691.56;171026;28;1464;-77
2021/12/14 00:05:52;;;;;;;19.23;6.57;;;-0.30;99.90;;;-0.60;97.42;98700.25;172611;28;1138;-77
2021/12/14 00:05:59;;;;;;;17.26;6.38;;;-0.30;99.90;;;-0.63;97.60;98695.13;171812;28;1485;-77
2021/12/14 00:06:05;;;;;;;14.57;6.10;;;-0.30;99.90;;;-0.70;97.35;98677.91;171976;28;1094;-77
2021/12/14 00:06:15;;;;;;;15.05;6.38;;;-0.30;99.90;;;-0.63;97.37;98695.13;171481;28;1875;-77
2021/12/14 00:06:23;;;;;;;14.80;6.46;;;-0.20;99.90;;;-0.63;97.46;98692.50;171666;28;1772;-77
2021/12/14 00:06:30;;;;;;;15.20;6.67;;;-0.30;99.90;;;-0.69;97.41;98684.91;171168;28;1371;-77
2021/12/14 00:06:38;;;;;;;15.00;6.70;;;-0.30;99.90;;;-0.62;97.54;98694.19;172632;28;942;-77
2021/12/14 00:06:48;;;;;;;14.97;6.28;;;-0.20;99.90;;;-0.79;97.23;98667.88;171695;28;1490;-77
2021/12/14 00:06:57;;;;;;;14.34;6.32;;;-0.30;99.90;;;-0.81;97.66;98665.31;171288;28;1529;-78
2021/12/14 00:07:10;;;;;;;15.44;6.11;;;-0.30;99.90;;;-0.62;97.54;98696.84;172542;28;1025;-77
2021/12/14 00:07:18;;;;;;;17.94;6.13;;;-0.30;99.90;;;-0.66;97.23;98690.84;171955;28;1244;-77
2021/12/14 00:07:24;;;;;;;17.75;6.08;;;-0.30;99.90;;;-0.65;97.56;98695.22;171219;28;956;-77
2021/12/14 00:07:30;;;;;;;16.50;6.23;;;-0.30;99.90;;;-0.96;97.54;98639.75;171278;28;930;-77
2021/12/14 00:07:36;;;;;;;15.25;6.32;;;-0.30;99.90;;;-0.72;97.56;98678.00;170547;28;1377;-77
2021/12/14 00:07:43;;;;;;;13.57;6.37;;;-0.30;99.90;;;-0.69;97.11;98684.91;171784;28;1209;-77
2021/12/14 00:07:51;;;;;;;14.38;6.47;;;-0.30;99.90;;;-0.65;97.15;98692.56;173174;28;1544;-77
2021/12/14 00:08:01;;;;;;;15.42;6.75;;;-0.30;99.90;;;-0.71;97.43;98679.69;172379;28;1605;-77
2021/12/14 00:08:12;;;;;;;16.02;6.71;;;-0.30;99.90;;;-0.74;97.43;98677.25;173703;28;1552;-77
2021/12/14 00:08:19;;;;;;;15.37;6.63;;;-0.30;99.90;;;-0.64;97.48;98694.28;173111;28;1426;-77
2021/12/14 00:08:30;;;;;;;17.97;6.77;;;-0.30;99.90;;;-0.61;97.40;98698.53;173366;28;988;-77
2021/12/14 00:08:48;;;;;;;18.72;6.41;;;-0.30;99.90;;;-0.73;97.40;98675.47;171887;28;1242;-77
2021/12/14 00:08:57;;;;;;;18.20;5.68;;;-0.30;99.90;;;-0.57;97.04;98697.44;172588;28;1218;-77
2021/12/14 00:09:06;;;;;;;14.77;5.27;;;-0.30;99.90;;;-0.60;96.92;98697.59;173897;28;1040;-77
2021/12/14 00:09:24;;;;;;;12.76;5.76;;;-0.30;99.90;;;-0.59;96.71;98704.59;174489;28;1494;-77
2021/12/14 00:09:35;;;;;;;13.61;6.01;;;-0.30;99.90;;;-0.62;96.72;98699.50;172422;28;2751;-77
2021/12/14 00:09:42;;;;;;;14.29;5.92;;;-0.30;99.90;;;-0.64;96.45;98690.78;172345;28;1601;-77
2021/12/14 00:09:49;;;;;;;13.72;5.96;;;-0.30;99.90;;;-0.59;96.45;98701.94;171821;28;1361;-77
2021/12/14 00:10:11;;;;;;;13.53;6.07;;;-0.30;99.90;;;-0.63;96.35;98700.44;170645;29;833;-77
2021/12/14 00:11:26;;;;;;;15.60;6.30;;;-0.30;99.90;;;-0.71;96.07;98678.84;171239;28;1010;-77
2021/12/14 00:12:39;;;;;;;17.38;6.75;;;-0.40;99.90;;;-0.75;95.79;98688.75;170476;29;1208;-78
2021/12/14 00:13:00;;;;;;;16.27;5.69;;;-0.40;99.90;;;-0.74;95.65;98698.41;171848;28;1440;-77
2021/12/14 00:13:26;;;;;;;17.54;5.49;;;-0.40;99.90;;;-0.74;95.82;98694.91;171256;28;1187;-77
2021/12/14 00:13:57;;;;;;;15.25;5.94;;;-0.40;99.90;;;-0.74;96.29;98694.91;171879;28;1206;-77
2021/12/14 00:15:03;;;;;;;15.91;6.18;;;-0.40;99.90;;;-0.77;96.20;98689.75;172452;28;1468;-77
2021/12/14 00:15:04;;;;;;;16.54;6.26;;;-0.40;99.90;;;-0.78;95.78;98696.00;173892;28;1225;-77
2021/12/14 00:15:16;;;;;;;15.15;5.89;;;-0.40;99.90;;;-0.89;95.92;98678.97;172546;28;1410;-77
2021/12/14 00:15:23;;;;;;;14.86;6.16;;;-0.40;99.90;;;-0.83;96.19;98676.91;171928;28;1571;-78
2021/12/14 00:15:29;;;;;;;17.13;6.90;;;-0.40;99.90;;;-0.78;95.88;98693.38;172534;28;938;-77
2021/12/14 00:15:35;;;;;;;16.80;6.78;;;-0.40;99.90;;;-0.76;96.02;98688.81;173120;28;1446;-77
2021/12/14 00:15:41;;;;;;;17.00;6.80;;;-0.40;99.90;;;-0.76;96.24;98694.97;173254;28;856;-77
2021/12/14 00:15:50;;;;;;;17.35;6.75;;;-0.40;99.90;;;-0.92;95.71;98671.19;172429;28;1219;-77
2021/12/14 00:15:57;;;;;;;15.12;6.17;;;-0.40;99.90;;;-0.89;95.90;98667.53;172522;28;1381;-77
2021/12/14 00:16:05;;;;;;;15.43;6.03;;;-0.40;99.90;;;-0.75;95.92;98696.69;173274;28;918;-77
2021/12/14 00:16:13;;;;;;;15.67;6.10;;;-0.40;99.90;;;-0.88;96.06;98672.72;173229;28;949;-77
2021/12/14 00:16:19;;;;;;;17.40;6.30;;;-0.40;99.90;;;-0.84;96.10;98691.94;172466;28;1326;-77
2021/12/14 00:16:26;;;;;;;18.48;6.60;;;-0.40;99.90;;;-0.82;95.65;98687.38;172545;28;1772;-77
2021/12/14 00:16:32;;;;;;;17.80;6.53;;;-0.40;99.90;;;-0.83;95.98;98679.56;173132;28;1344;-77
2021/12/14 00:16:41;;;;;;;16.46;6.20;;;-0.40;99.90;;;-0.74;95.86;98698.41;172408;28;1447;-77
2021/12/14 00:16:54;;;;;;;13.83;5.93;;;-0.40;99.90;;;-0.89;96.20;98672.84;171908;28;856;-77
2021/12/14 00:17:00;;;;;;;14.31;5.59;;;-0.40;99.90;;;-0.76;95.86;98700.25;172410;28;1446;-77
2021/12/14 00:17:28;;;;;;;15.08;5.64;;;-0.40;99.90;;;-0.83;95.71;98692.78;172451;28;1522;-77
2021/12/14 00:17:48;;;;;;;16.02;5.82;;;-0.40;99.90;;;-0.77;96.13;98703.84;170866;28;1575;-77
2021/12/14 00:18:06;;;;;;;15.77;6.18;;;-0.40;99.90;;;-0.82;95.77;98691.81;171770;28;1703;-77
2021/12/14 00:18:13;;;;;;;14.61;6.16;;;-0.50;99.90;;;-0.81;95.51;98698.81;173989;28;1240;-77
2021/12/14 00:18:20;;;;;;;15.76;6.44;;;-0.50;99.90;;;-0.90;95.91;98698.41;171705;28;1528;-77
2021/12/14 00:18:26;;;;;;;15.70;6.65;;;-0.50;99.90;;;-0.95;95.69;98678.47;171395;28;1892;-77
2021/12/14 00:18:34;;;;;;;14.50;6.40;;;-0.50;99.90;;;-0.88;95.80;98703.59;171794;28;1110;-77
2021/12/14 00:18:41;;;;;;;14.20;6.07;;;-0.50;99.90;;;-0.93;95.37;98684.50;171093;28;1439;-77
2021/12/14 00:18:47;;;;;;;15.10;6.24;;;-0.50;99.90;;;-0.79;95.47;98707.53;171008;28;1538;-77
2021/12/14 00:18:53;;;;;;;13.77;5.90;;;-0.50;99.90;;;-0.85;95.62;98706.06;172587;28;1364;-77
2021/12/14 00:19:01;;;;;;;13.73;6.00;;;-0.50;99.90;;;-0.96;95.87;98688.19;171202;28;1378;-77
2021/12/14 00:19:07;;;;;;;15.38;6.53;;;-0.50;99.90;;;-0.83;95.67;98706.00;170576;29;1396;-77
2021/12/14 00:19:15;;;;;;;14.80;6.57;;;-0.50;99.90;;;-0.85;95.55;98700.78;172540;28;1279;-76
2021/12/14 00:19:21;;;;;;;18.12;7.00;;;-0.50;99.90;;;-0.89;95.31;98691.34;171691;28;1338;-77
2021/12/14 00:19:29;;;;;;;18.40;7.00;;;-0.50;99.90;;;-0.95;95.43;98686.38;171172;28;1670;-77
2021/12/14 00:19:35;;;;;;;17.40;6.43;;;-0.50;99.90;;;-0.88;95.41;98696.50;171781;28;1130;-77
2021/12/14 00:19:42;;;;;;;17.37;6.33;;;-0.50;99.90;;;-0.97;95.90;98675.91;171901;28;1113;-77
2021/12/14 00:19:54;;;;;;;14.45;6.13;;;-0.50;99.90;;;-0.84;95.98;98699.00;171117;28;1127;-78
2021/12/14 00:20:07;;;;;;;13.30;5.74;;;-0.50;99.90;;;-0.79;95.93;98708.38;169892;29;1241;-77
2021/12/14 00:20:31;;;;;;;15.04;6.04;;;-0.50;99.90;;;-0.79;96.04;98704.88;170359;29;1308;-77
2021/12/14 00:20:55;;;;;;;14.96;6.63;;;-0.40;99.90;;;-0.86;96.06;98694.66;170502;29;1253;-77
2021/12/14 00:21:19;;;;;;;13.73;6.63;;;-0.40;99.90;;;-0.94;96.49;98682.81;171236;28;1250;-77
2021/12/14 00:21:30;;;;;;;12.64;6.25;;;-0.50;99.90;;;-0.97;96.62;98675.03;170392;28;2819;-77
2021/12/14 00:21:37;;;;;;;14.43;6.07;;;-0.40;99.90;;;-0.93;96.98;98684.50;172424;28;2219;-77
2021/12/14 00:21:49;;;;;;;14.90;6.37;;;-0.50;99.90;;;-0.93;96.80;98690.63;172793;28;1292;-77
2021/12/14 00:22:03;;;;;;;15.44;6.30;;;-0.50;99.90;;;-0.93;96.80;98684.50;172634;28;1225;-77
2021/12/14 00:24:06;;;;;;;14.44;6.01;;;-0.50;99.90;;;-0.86;97.21;98697.28;171063;28;1217;-77
2021/12/14 00:24:10;;;;;;;15.46;6.39;;;-0.50;99.90;;;-0.95;96.82;98681.09;171837;28;1205;-77
2021/12/14 00:24:20;;;;;;;16.34;6.34;;;-0.50;99.90;;;-0.88;96.79;98693.88;170460;28;1368;-78
2021/12/14 00:24:26;;;;;;;13.99;6.15;;;-0.50;99.90;;;-0.89;96.72;98697.47;172421;28;1700;-77
2021/12/14 00:24:34;;;;;;;13.67;5.87;;;-0.50;99.90;;;-0.98;96.88;98678.63;173082;28;1244;-77
2021/12/14 00:24:40;;;;;;;12.80;5.40;;;-0.50;99.90;;;-0.88;96.91;98701.78;172600;28;1279;-77
2021/12/14 00:24:47;;;;;;;13.05;5.68;;;-0.50;99.90;;;-0.94;96.96;98691.59;173245;28;1219;-76
2021/12/14 00:24:54;;;;;;;13.82;5.84;;;-0.50;99.90;;;-0.90;96.58;98692.25;172556;28;903;-77
2021/12/14 00:25:04;;;;;;;13.67;5.93;;;-0.50;99.90;;;-0.98;96.90;98682.13;172621;28;888;-77
2021/12/14 00:25:09;;;;;;;14.43;5.96;;;-0.50;99.90;;;-0.90;96.84;98694.91;173775;28;1324;-77
2021/12/14 00:25:15;;;;;;;15.70;5.78;;;-0.50;99.90;;;-0.88;96.68;98701.78;172565;28;1240;-77
2021/12/14 00:25:48;;;;;;;16.00;6.00;;;-0.50;99.90;;;-0.88;96.47;98687.72;173057;28;1309;-77
2021/12/14 00:25:55;;;;;;;14.61;6.09;;;-0.50;99.90;;;-0.82;96.42;98695.31;171831;28;1789;-77
2021/12/14 00:26:01;;;;;;;15.37;6.20;;;-0.50;99.90;;;-0.90;96.69;98686.97;172653;28;915;-77
2021/12/14 00:26:07;;;;;;;15.35;6.20;;;-0.50;99.90;;;-0.83;96.13;98698.91;173093;28;1301;-77
2021/12/14 00:26:16;;;;;;;15.28;6.06;;;-0.50;99.90;;;-0.93;96.23;98676.56;171823;28;1335;-77
2021/12/14 00:26:23;;;;;;;15.38;5.97;;;-0.50;99.90;;;-1.05;96.21;98664.06;172333;28;1417;-77
2021/12/14 00:26:29;;;;;;;16.83;6.07;;;-0.50;99.90;;;-0.87;96.45;98685.00;172435;28;1881;-76
2021/12/14 00:26:39;;;;;;;15.93;6.18;;;-0.50;99.90;;;-0.99;96.30;98663.72;171618;28;1579;-76
2021/12/14 00:26:57;;;;;;;16.37;6.30;;;-0.50;99.90;;;-0.80;96.41;98697.88;173140;28;1669;-76
2021/12/14 00:27:07;;;;;;;15.39;6.19;;;-0.50;99.90;;;-0.97;96.44;98664.47;172369;28;1587;-77
2021/12/14 00:27:18;;;;;;;13.27;5.57;;;-0.40;99.90;;;-0.81;96.32;98693.53;171896;28;1013;-77
2021/12/14 00:27:26;;;;;;;12.80;5.34;;;-0.50;99.90;;;-0.96;96.38;98674.97;173132;28;1582;-77
2021/12/14 00:27:34;;;;;;;13.10;5.80;;;-0.50;99.90;;;-0.84;96.02;98696.34;171897;28;828;-77
2021/12/14 00:27:41;;;;;;;14.27;5.91;;;-0.50;99.90;;;-0.91;96.15;98679.97;171126;28;1459;-77
2021/12/14 00:27:47;;;;;;;13.43;5.72;;;-0.40;99.90;;;-0.92;96.34;98676.50;171816;28;1491;-77
2021/12/14 00:27:58;;;;;;;13.40;5.73;;;-0.50;99.90;;;-1.00;95.89;98657.59;173189;28;1453;-76
2021/12/14 00:28:28;;;;;;;14.00;5.48;;;-0.50;99.90;;;-0.86;96.34;98688.50;173599;28;1483;-77
2021/12/14 00:28:35;;;;;;;13.89;5.76;;;-0.50;99.90;;;-0.93;95.92;98672.13;173712;28;2024;-77
2021/12/14 00:28:42;;;;;;;15.10;5.97;;;-0.50;99.90;;;-0.83;95.77;98696.28;172563;28;971;-77
2021/12/14 00:28:50;;;;;;;14.63;5.80;;;-0.50;99.90;;;-0.89;95.97;98678.97;173252;28;1094;-77
2021/12/14 00:28:56;;;;;;;14.79;5.91;;;-0.50;99.90;;;-0.98;96.17;98668.03;171880;28;1451;-77
2021/12/14 00:29:05;;;;;;;14.67;6.13;;;-0.50;99.90;;;-0.93;96.02;98671.28;172627;28;1018;-77
2021/12/14 00:29:24;;;;;;;13.36;6.20;;;-0.50;99.90;;;-0.96;96.26;98668.81;172481;28;1320;-77
2021/12/14 00:29:44;;;;;;;13.59;5.97;;;-0.50;99.90;;;-0.87;96.19;98686.78;172382;28;1393;-77
2021/12/14 00:29:59;;;;;;;14.76;5.94;;;-0.50;99.90;;;-0.91;96.38;98686.13;172928;28;1370;-77
2021/12/14 00:30:07;;;;;;;15.24;5.89;;;-0.50;99.90;;;-0.91;96.44;98675.56;172378;28;1434;-77
2021/12/14 00:30:14;;;;;;;16.03;5.96;;;-0.50;99.90;;;-1.21;96.69;98634.16;171165;28;1460;-77
2021/12/14 00:30:21;;;;;;;18.30;6.37;;;-0.50;99.90;;;-0.98;96.79;98668.03;171780;28;1132;-77
2021/12/14 00:30:28;;;;;;;19.10;6.47;;;-0.50;99.90;;;-1.12;96.61;98647.69;171257;28;1797;-77
2021/12/14 00:30:36;;;;;;;19.22;6.42;;;-0.50;99.90;;;-0.89;96.69;98688.69;172404;28;1357;-77
2021/12/14 00:30:45;;;;;;;18.30;6.53;;;-0.50;99.90;;;-1.02;96.68;98669.16;171739;28;2065;-78
2021/12/14 00:30:54;;;;;;;17.70;6.30;;;-0.50;99.90;;;-0.99;96.45;98675.16;173008;28;1287;-77
2021/12/14 00:31:09;;;;;;;15.73;6.09;;;-0.50;99.90;;;-1.04;96.43;98663.13;173838;28;1140;-77
2021/12/14 00:31:19;;;;;;;15.40;5.76;;;-0.50;99.90;;;-0.96;96.46;98680.25;171828;28;1213;-77
2021/12/14 00:31:26;;;;;;;15.13;5.89;;;-0.50;99.90;;;-0.99;96.40;98685.72;173231;28;1142;-77
2021/12/14 00:31:34;;;;;;;16.42;5.92;;;-0.50;99.90;;;-0.90;96.54;98686.97;172981;28;1756;-77
2021/12/14 00:31:40;;;;;;;16.85;6.47;;;-0.50;99.90;;;-0.97;96.62;98688.25;171456;28;1026;-77
2021/12/14 00:31:47;;;;;;;17.06;6.46;;;-0.50;99.90;;;-1.01;96.64;98669.09;171887;28;1145;-77
2021/12/14 00:31:58;;;;;;;15.87;6.23;;;-0.50;99.90;;;-0.99;96.58;98683.06;173148;28;1509;-77
2021/12/14 00:32:17;;;;;;;14.13;5.97;;;-0.50;99.90;;;-0.91;96.24;98690.56;171789;28;1110;-77
2021/12/14 00:32:33;;;;;;;14.79;5.89;;;-0.50;99.90;;;-0.95;96.58;98691.69;171218;28;1254;-77
2021/12/14 00:32:39;;;;;;;14.02;6.18;;;-0.50;99.90;;;-1.04;96.41;98671.06;172513;28;1204;-77
2021/12/14 00:32:46;;;;;;;13.55;6.15;;;-0.50;99.90;;;-0.96;96.69;98692.59;172482;28;1272;-77
2021/12/14 00:32:52;;;;;;;12.77;5.73;;;-0.50;99.90;;;-0.94;96.26;98696.88;171686;28;1326;-77
2021/12/14 00:32:58;;;;;;;13.07;5.75;;;-0.60;99.90;;;-0.96;96.59;98690.81;171076;28;1352;-76
2021/12/14 00:33:12;;;;;;;14.36;5.50;;;-0.50;99.90;;;-1.06;96.34;98680.84;171751;28;1044;-77
2021/12/14 00:33:24;;;;;;;16.13;5.81;;;-0.50;99.90;;;-1.07;96.77;98677.34;172523;28;1224;-77
2021/12/14 00:33:35;;;;;;;16.46;6.24;;;-0.50;99.90;;;-1.09;96.90;98679.22;172511;28;1249;-77
2021/12/14 00:33:54;;;;;;;14.51;6.01;;;-0.50;99.90;;;-1.15;96.55;98665.53;172363;28;2735;-77
2021/12/14 00:34:01;;;;;;;15.02;5.78;;;-0.60;99.90;;;-1.10;96.65;98680.19;171814;28;1269;-77
2021/12/14 00:34:09;;;;;;;14.67;5.77;;;-0.50;99.90;;;-0.96;96.53;98704.03;171582;28;1734;-77
2021/12/14 00:34:24;;;;;;;15.43;5.93;;;-0.60;99.90;;;-0.98;96.26;98695.31;171967;28;898;-77
2021/12/14 00:34:37;;;;;;;13.89;6.01;;;-0.60;99.90;;;-0.99;96.34;98695.44;173462;28;1709;-77
2021/12/14 00:34:45;;;;;;;14.52;6.07;;;-0.60;99.90;;;-0.95;96.55;98699.59;171094;28;1520;-77
2021/12/14 00:34:55;;;;;;;14.76;5.80;;;-0.60;99.90;;;-0.95;96.38;98705.75;170963;28;1428;-77
2021/12/14 00:35:10;;;;;;;14.63;5.58;;;-0.60;99.90;;;-1.01;96.25;98684.94;171855;28;1235;-77
2021/12/14 00:35:20;;;;;;;13.59;5.99;;;-0.60;99.90;;;-1.01;96.23;98694.66;171868;28;1347;-77
2021/12/14 00:35:26;;;;;;;13.61;6.34;;;-0.60;99.90;;;-1.04;96.62;98686.91;171865;28;1383;-77
2021/12/14 00:35:32;;;;;;;12.85;6.05;;;-0.60;99.90;;;-0.99;96.23;98692.78;173238;28;1014;-77
2021/12/14 00:35:40;;;;;;;11.77;5.72;;;-0.60;99.90;;;-1.09;96.07;98676.56;171705;28;1445;-77
2021/12/14 00:35:48;;;;;;;12.85;5.63;;;-0.60;99.90;;;-1.13;96.40;98672.41;171782;28;1311;-77
2021/12/14 00:35:54;;;;;;;12.47;5.43;;;-0.60;99.90;;;-1.03;96.10;98680.66;172387;28;1389;-77
2021/12/14 00:36:04;;;;;;;12.50;5.55;;;-0.60;99.90;;;-1.00;96.24;98693.72;172361;28;1398;-77
2021/12/14 00:36:13;;;;;;;12.50;5.73;;;-0.60;99.90;;;-1.02;96.12;98682.38;171787;28;1292;-77
2021/12/14 00:36:21;;;;;;;12.14;5.83;;;-0.60;99.90;;;-1.15;96.42;98666.38;173794;28;1058;-77
2021/12/14 00:36:27;;;;;;;15.33;5.93;;;-0.60;99.90;;;-0.97;96.69;98693.53;172372;28;1692;-76
2021/12/14 00:36:37;;;;;;;15.73;5.60;;;-0.60;99.90;;;-0.99;96.47;98688.38;172487;28;1374;-76
2021/12/14 00:36:43;;;;;;;16.33;5.53;;;-0.60;99.90;;;-1.10;96.53;98666.13;171900;28;1166;-77
2021/12/14 00:36:52;;;;;;;14.63;5.60;;;-0.60;99.90;;;-0.99;96.41;98698.94;173112;28;1077;-77
2021/12/14 00:36:57;;;;;;;13.40;5.55;;;-0.60;99.90;;;-0.97;96.64;98690.91;172518;28;1105;-77
2021/12/14 00:37:12;;;;;;;12.98;5.93;;;-0.60;99.90;;;-1.10;96.39;98668.75;172298;28;1360;-77
2021/12/14 00:37:23;;;;;;;12.43;5.93;;;-0.60;99.90;;;-0.98;96.64;98687.41;171105;28;1718;-77
2021/12/14 00:37:38;;;;;;;13.62;5.72;;;-0.60;99.90;;;-1.04;96.83;98679.84;170312;28;2877;-77
2021/12/14 00:37:51;;;;;;;14.60;5.44;;;-0.60;99.90;;;-1.01;96.85;98690.22;171833;28;1246;-77
2021/12/14 00:37:58;;;;;;;14.79;5.46;;;-0.60;99.90;;;-1.29;96.51;98639.84;173164;28;1352;-77
2021/12/14 00:38:05;;;;;;;14.84;5.84;;;-0.60;99.90;;;-0.98;96.63;98694.47;175071;28;1302;-77
2021/12/14 00:38:14;;;;;;;14.90;5.87;;;-0.60;99.90;;;-0.96;96.76;98696.09;173976;28;1022;-77
2021/12/14 00:38:22;;;;;;;15.06;5.67;;;-0.60;99.90;;;-1.00;96.77;98689.28;172260;28;1510;-77
2021/12/14 00:38:29;;;;;;;14.18;5.62;;;-0.60;99.90;;;-1.00;97.14;98688.44;173747;28;1971;-77
2021/12/14 00:38:38;;;;;;;14.96;5.42;;;-0.60;99.90;;;-1.01;97.01;98684.94;173061;28;1198;-77
2021/12/14 00:38:48;;;;;;;17.07;5.59;;;-0.60;99.90;;;-0.93;96.90;98695.91;171803;28;1490;-77
2021/12/14 00:38:57;;;;;;;17.46;5.91;;;-0.60;99.90;;;-1.01;97.03;98679.66;172523;28;1157;-77
2021/12/14 00:39:09;;;;;;;17.14;6.07;;;-0.60;99.90;;;-0.93;97.14;98697.72;173144;28;1501;-77
2021/12/14 00:39:15;;;;;;;14.65;6.00;;;-0.60;99.90;;;-1.02;97.09;98682.38;172918;28;1474;-77
2021/12/14 00:39:21;;;;;;;13.85;5.93;;;-0.60;99.90;;;-0.98;97.04;98686.53;171197;28;1305;-77
2021/12/14 00:39:27;;;;;;;15.45;5.93;;;-0.60;99.90;;;-0.94;97.51;98688.09;171607;28;1496;-77
2021/12/14 00:39:35;;;;;;;16.80;5.93;;;-0.60;99.90;;;-1.02;97.47;98677.09;171975;28;832;-77
2021/12/14 00:39:43;;;;;;;16.70;5.98;;;-0.60;99.90;;;-0.95;97.19;98689.88;171876;28;985;-77
2021/12/14 00:39:54;;;;;;;17.84;5.73;;;-0.60;99.90;;;-0.99;97.50;98680.44;170394;29;1121;-77
2021/12/14 00:40:27;;;;;;;13.77;5.50;;;-0.60;99.90;;;-0.98;97.39;98689.19;171785;28;1371;-76
2021/12/14 00:40:41;;;;;;;14.18;6.06;;;-0.60;99.90;;;-0.94;97.44;98696.88;171704;28;1747;-76
2021/12/14 00:41:03;;;;;;;15.02;6.07;;;-0.60;99.90;;;-0.95;96.95;98694.31;172573;28;1254;-77
2021/12/14 00:41:21;;;;;;;16.02;6.24;;;-0.60;99.90;;;-0.96;96.96;98695.25;172987;28;1612;-77
2021/12/14 00:41:34;;;;;;;15.75;6.05;;;-0.60;99.90;;;-1.11;97.41;98670.53;173190;28;1220;-77
2021/12/14 00:41:41;;;;;;;12.27;5.63;;;-0.60;99.90;;;-1.04;97.33;98689.56;171347;28;1237;-77
2021/12/14 00:41:47;;;;;;;11.34;5.52;;;-0.60;99.90;;;-1.26;97.56;98652.91;170517;29;935;-77
2021/12/14 00:41:53;;;;;;;11.25;5.57;;;-0.60;99.90;;;-1.04;97.20;98695.69;170392;29;1329;-77
2021/12/14 00:42:00;;;;;;;13.17;5.90;;;-0.60;99.90;;;-1.07;97.75;98687.91;172510;28;935;-77
2021/12/14 00:42:09;;;;;;;13.62;6.16;;;-0.60;99.90;;;-1.07;97.33;98684.44;171131;28;1213;-77
2021/12/14 00:42:16;;;;;;;14.80;6.13;;;-0.60;99.90;;;-1.14;97.64;98675.97;172319;28;1310;-76
2021/12/14 00:42:22;;;;;;;14.80;5.87;;;-0.70;99.90;;;-1.14;97.37;98680.44;172444;28;1256;-77
2021/12/14 00:42:28;;;;;;;14.32;5.70;;;-0.70;99.90;;;-1.18;97.61;98669.16;172527;28;1772;-77
2021/12/14 00:42:35;;;;;;;13.05;5.43;;;-0.70;99.90;;;-1.03;97.59;98702.66;172266;28;1420;-77
2021/12/14 00:42:42;;;;;;;13.10;5.50;;;-0.70;99.90;;;-1.03;97.76;98700.03;172402;28;1313;-77
2021/12/14 00:42:50;;;;;;;14.18;5.54;;;-0.70;99.90;;;-1.08;97.55;98686.22;172470;28;1138;-77
2021/12/14 00:42:58;;;;;;;14.50;5.80;;;-0.70;99.90;;;-1.03;97.47;98697.38;172475;28;1384;-77
2021/12/14 00:43:05;;;;;;;15.23;5.80;;;-0.60;99.90;;;-1.02;98.09;98696.44;172588;28;997;-77
2021/12/14 00:43:12;;;;;;;14.67;5.87;;;-0.70;99.90;;;-1.13;97.18;98676.84;171927;28;942;-77
2021/12/14 00:43:18;;;;;;;14.44;6.02;;;-0.70;99.90;;;-0.98;97.54;98705.03;171101;28;1394;-77
2021/12/14 00:43:25;;;;;;;14.85;6.25;;;-0.70;99.90;;;-1.06;97.56;98688.78;172419;28;1232;-77
2021/12/14 00:43:31;;;;;;;15.30;6.38;;;-0.70;99.90;;;-1.07;97.41;98687.91;173212;28;909;-77
2021/12/14 00:43:37;;;;;;;13.83;6.10;;;-0.60;99.90;;;-1.11;97.55;98677.63;170914;28;1801;-77
2021/12/14 00:43:45;;;;;;;13.45;6.13;;;-0.70;99.90;;;-1.12;97.43;98675.91;171217;28;954;-77
2021/12/14 00:43:51;;;;;;;13.13;5.92;;;-0.60;99.90;;;-1.04;97.70;98690.41;172343;28;1730;-77
2021/12/14 00:43:59;;;;;;;12.40;5.57;;;-0.60;99.90;;;-1.14;97.54;98669.88;173201;28;1013;-77
2021/12/14 00:44:08;;;;;;;12.60;5.83;;;-0.70;99.90;;;-1.26;97.70;98654.69;171069;28;1303;-77
2021/12/14 00:44:14;;;;;;;13.36;5.89;;;-0.70;99.90;;;-0.98;97.48;98697.97;171821;28;1323;-77
2021/12/14 00:44:21;;;;;;;12.93;5.95;;;-0.60;99.90;;;-1.32;97.66;98632.97;171123;28;964;-78
2021/12/14 00:44:27;;;;;;;13.00;6.24;;;-0.70;99.90;;;-1.04;97.39;98681.63;172452;28;1347;-77
2021/12/14 00:44:33;;;;;;;12.52;6.18;;;-0.70;99.90;;;-1.04;97.72;98681.63;173054;28;1605;-77
2021/12/14 00:44:40;;;;;;;11.90;6.00;;;-0.70;99.90;;;-0.97;97.42;98704.13;173860;28;1236;-77
2021/12/14 00:44:47;;;;;;;13.17;6.13;;;-0.70;99.90;;;-1.04;97.07;98693.06;171852;28;1455;-77
2021/12/14 00:44:53;;;;;;;13.92;5.82;;;-0.70;99.90;;;-1.01;97.32;98695.50;171050;28;1064;-77
2021/12/14 00:44:59;;;;;;;13.55;5.43;;;-0.60;99.90;;;-1.09;97.59;98687.16;173236;28;903;-77
2021/12/14 00:45:06;;;;;;;15.53;5.63;;;-0.60;99.90;;;-1.07;97.29;98682.63;172036;28;1414;-77
2021/12/14 00:45:13;;;;;;;15.96;5.74;;;-0.60;99.90;;;-1.04;97.47;98686.91;171814;28;1181;-77
2021/12/14 00:45:21;;;;;;;15.64;5.56;;;-0.60;99.90;;;-1.04;97.14;98692.19;171821;28;1061;-77
2021/12/14 00:45:33;;;;;;;15.40;5.27;;;-0.60;99.90;;;-1.08;97.37;98686.22;170392;29;1821;-77
2021/12/14 00:45:44;;;;;;;14.93;5.03;;;-0.70;99.90;;;-1.07;97.94;98681.78;171709;28;1291;-77
2021/12/14 00:45:51;;;;;;;14.40;5.50;;;-0.60;99.90;;;-1.06;97.68;98691.41;171698;28;1245;-77
2021/12/14 00:45:58;;;;;;;14.14;5.68;;;-0.70;99.90;;;-1.03;97.74;98697.38;170505;29;971;-77
2021/12/14 00:46:05;;;;;;;13.23;5.93;;;-0.70;99.90;;;-1.13;97.61;98680.34;171863;28;1684;-77
2021/12/14 00:46:13;;;;;;;11.70;5.77;;;-0.60;99.90;;;-1.07;97.79;98687.91;172588;28;954;-76
2021/12/14 00:46:20;;;;;;;11.37;5.17;;;-0.70;99.90;;;-1.08;97.51;98683.56;172813;28;1453;-77
2021/12/14 00:46:27;;;;;;;11.60;5.20;;;-0.70;99.90;;;-1.04;97.98;98693.06;172450;28;1569;-78
2021/12/14 00:46:36;;;;;;;12.56;5.20;;;-0.70;99.90;;;-1.12;97.93;98675.91;171734;28;1667;-77
2021/12/14 00:46:42;;;;;;;14.63;5.30;;;-0.60;99.90;;;-1.09;98.15;98681.84;170580;29;868;-77
2021/12/14 00:46:50;;;;;;;14.77;5.73;;;-0.70;99.90;;;-1.15;98.06;98671.66;171910;28;1040;-77
2021/12/14 00:46:56;;;;;;;15.48;6.00;;;-0.70;99.90;;;-1.16;98.36;98671.72;171878;28;1021;-78
2021/12/14 00:47:04;;;;;;;15.98;6.35;;;-0.70;99.90;;;-1.17;98.23;98670.88;171842;28;947;-77
2021/12/14 00:47:10;;;;;;;15.47;6.62;;;-0.70;99.90;;;-1.20;98.12;98668.41;171786;28;1192;-77